OPA Logo
 
ASOS:
At:2019.04.23 1755 UTC
Wind:210° @ 3KT
Viz: 10 mile(s)
Sky: mostly cloudy
Temp: 62 F (17 C)
DewP: 48 F (9 C)
RH: 59%
Baro: 30.2 in.
ob: KBDN 231755Z AUTO 21003KT 10SM BKN048 BKN055 17/09 A3020 RMK AO2

ASOS: KRDM
At:2019.04.23 1656 UTC
Wind:160° @ 3KT
Viz: 10 mile(s)
Sky: mostly cloudy
Temp: 60.1 F (15.6 C)
DewP: 48.0 F (8.9 C)
RH: 64%
Baro: 30.2 in.
ob: KRDM 231656Z 16003KT 10SM BKN060 16/09 A3020 RMK AO2 SLP214 T01560089 PNO
Apache-SSL Logo

Valid HTML 4.01!

Central Oregon OPA Chapter

Calendar


Other Calendar pages

Oregon Pilots Association Events Calendar

Washington Pilots Association Events


Web page by: gem@rellim.com